sensor_id;sensor_type;location;lat;lon;timestamp;temperature;humidity
23683;DHT22;24897;53.514;10.482;2023-01-15T00:00:24;7.40;99.90
23683;DHT22;24897;53.514;10.482;2023-01-15T00:03:08;7.40;99.90
23683;DHT22;24897;53.514;10.482;2023-01-15T00:05:52;7.30;99.90
23683;DHT22;24897;53.514;10.482;2023-01-15T00:08:36;7.50;99.90
23683;DHT22;24897;53.514;10.482;2023-01-15T00:11:20;7.50;99.90
23683;DHT22;24897;53.514;10.482;2023-01-15T00:14:05;7.50;99.90
23683;DHT22;24897;53.514;10.482;2023-01-15T00:16:52;7.50;99.90
23683;DHT22;24897;53.514;10.482;2023-01-15T00:19:37;7.40;99.90
23683;DHT22;24897;53.514;10.482;2023-01-15T00:22:21;7.40;99.90
23683;DHT22;24897;53.514;10.482;2023-01-15T00:25:05;7.30;99.90
23683;DHT22;24897;53.514;10.482;2023-01-15T00:28:12;7.30;99.90
23683;DHT22;24897;53.514;10.482;2023-01-15T00:30:57;7.40;99.90
23683;DHT22;24897;53.514;10.482;2023-01-15T00:33:41;7.30;99.90
23683;DHT22;24897;53.514;10.482;2023-01-15T00:36:25;7.20;99.90
23683;DHT22;24897;53.514;10.482;2023-01-15T00:39:10;7.20;99.90
23683;DHT22;24897;53.514;10.482;2023-01-15T00:41:54;7.20;99.90
23683;DHT22;24897;53.514;10.482;2023-01-15T00:44:38;7.10;99.90
23683;DHT22;24897;53.514;10.482;2023-01-15T00:47:23;7.10;99.90
23683;DHT22;24897;53.514;10.482;2023-01-15T00:50:10;7.10;99.90
23683;DHT22;24897;53.514;10.482;2023-01-15T00:52:55;7.10;99.90
23683;DHT22;24897;53.514;10.482;2023-01-15T00:55:39;7.10;99.90
23683;DHT22;24897;53.514;10.482;2023-01-15T00:58:23;7.10;99.90
23683;DHT22;24897;53.514;10.482;2023-01-15T01:01:07;7.10;99.90
23683;DHT22;24897;53.514;10.482;2023-01-15T01:03:51;7.10;99.90
23683;DHT22;24897;53.514;10.482;2023-01-15T01:06:36;7.10;99.90
23683;DHT22;24897;53.514;10.482;2023-01-15T01:09:20;7.10;99.90
23683;DHT22;24897;53.514;10.482;2023-01-15T01:12:04;7.10;99.90
23683;DHT22;24897;53.514;10.482;2023-01-15T01:14:49;7.00;99.90
23683;DHT22;24897;53.514;10.482;2023-01-15T01:17:33;7.10;99.90
23683;DHT22;24897;53.514;10.482;2023-01-15T01:20:17;7.00;99.90
23683;DHT22;24897;53.514;10.482;2023-01-15T01:23:01;7.10;99.90
23683;DHT22;24897;53.514;10.482;2023-01-15T01:25:45;7.10;99.90
23683;DHT22;24897;53.514;10.482;2023-01-15T01:28:30;7.10;99.90
23683;DHT22;24897;53.514;10.482;2023-01-15T01:31:14;7.00;99.90
23683;DHT22;24897;53.514;10.482;2023-01-15T01:33:59;7.10;99.90
23683;DHT22;24897;53.514;10.482;2023-01-15T01:36:43;7.00;99.90
23683;DHT22;24897;53.514;10.482;2023-01-15T01:39:28;7.00;99.90
23683;DHT22;24897;53.514;10.482;2023-01-15T01:42:16;7.10;99.90
23683;DHT22;24897;53.514;10.482;2023-01-15T01:45:06;7.00;99.90
23683;DHT22;24897;53.514;10.482;2023-01-15T01:47:55;7.10;99.90
23683;DHT22;24897;53.514;10.482;2023-01-15T01:50:43;7.00;99.90
23683;DHT22;24897;53.514;10.482;2023-01-15T01:53:29;7.00;99.90
23683;DHT22;24897;53.514;10.482;2023-01-15T01:56:13;7.00;99.90
23683;DHT22;24897;53.514;10.482;2023-01-15T01:59:02;7.10;99.90
23683;DHT22;24897;53.514;10.482;2023-01-15T02:01:48;7.10;99.90
23683;DHT22;24897;53.514;10.482;2023-01-15T02:04:32;7.10;99.90
23683;DHT22;24897;53.514;10.482;2023-01-15T02:07:18;7.10;99.90
23683;DHT22;24897;53.514;10.482;2023-01-15T02:10:02;7.10;99.90
23683;DHT22;24897;53.514;10.482;2023-01-15T02:12:54;7.00;99.90
23683;DHT22;24897;53.514;10.482;2023-01-15T02:15:44;7.10;99.90
23683;DHT22;24897;53.514;10.482;2023-01-15T02:18:55;7.00;99.90
23683;DHT22;24897;53.514;10.482;2023-01-15T02:21:53;7.10;99.90
23683;DHT22;24897;53.514;10.482;2023-01-15T02:25:09;7.00;99.90
23683;DHT22;24897;53.514;10.482;2023-01-15T02:28:09;7.00;99.90
23683;DHT22;24897;53.514;10.482;2023-01-15T02:31:07;7.00;99.90
23683;DHT22;24897;53.514;10.482;2023-01-15T02:36:41;7.00;99.90
23683;DHT22;24897;53.514;10.482;2023-01-15T02:39:26;7.10;99.90
23683;DHT22;24897;53.514;10.482;2023-01-15T02:42:12;7.00;99.90
23683;DHT22;24897;53.514;10.482;2023-01-15T02:44:59;7.10;99.90
23683;DHT22;24897;53.514;10.482;2023-01-15T02:47:46;7.00;99.90
23683;DHT22;24897;53.514;10.482;2023-01-15T02:50:35;7.00;99.90
23683;DHT22;24897;53.514;10.482;2023-01-15T02:53:25;7.00;99.90
23683;DHT22;24897;53.514;10.482;2023-01-15T02:56:13;7.00;99.90
23683;DHT22;24897;53.514;10.482;2023-01-15T02:59:02;7.10;99.90
23683;DHT22;24897;53.514;10.482;2023-01-15T03:01:53;7.10;99.90
23683;DHT22;24897;53.514;10.482;2023-01-15T03:04:47;7.10;99.90
23683;DHT22;24897;53.514;10.482;2023-01-15T03:07:47;7.00;99.90
23683;DHT22;24897;53.514;10.482;2023-01-15T03:16:47;7.50;99.90
23683;DHT22;24897;53.514;10.482;2023-01-15T03:19:42;6.90;99.90
23683;DHT22;24897;53.514;10.482;2023-01-15T03:22:32;6.30;99.90
23683;DHT22;24897;53.514;10.482;2023-01-15T03:25:26;7.00;99.90
23683;DHT22;24897;53.514;10.482;2023-01-15T03:28:13;7.20;99.90
23683;DHT22;24897;53.514;10.482;2023-01-15T03:30:58;7.10;99.90
23683;DHT22;24897;53.514;10.482;2023-01-15T03:33:43;7.10;99.90
23683;DHT22;24897;53.514;10.482;2023-01-15T03:36:27;7.10;99.90
23683;DHT22;24897;53.514;10.482;2023-01-15T03:39:11;7.10;99.90
23683;DHT22;24897;53.514;10.482;2023-01-15T03:42:24;7.10;99.90
23683;DHT22;24897;53.514;10.482;2023-01-15T03:45:29;7.20;99.90
23683;DHT22;24897;53.514;10.482;2023-01-15T03:48:23;7.10;99.90
23683;DHT22;24897;53.514;10.482;2023-01-15T03:52:10;7.10;99.90
23683;DHT22;24897;53.514;10.482;2023-01-15T03:54:41;7.00;99.90
23683;DHT22;24897;53.514;10.482;2023-01-15T04:00:50;7.00;99.90
23683;DHT22;24897;53.514;10.482;2023-01-15T04:03:36;6.90;99.90
23683;DHT22;24897;53.514;10.482;2023-01-15T04:06:21;8.10;99.90
23683;DHT22;24897;53.514;10.482;2023-01-15T04:09:10;7.30;99.90
23683;DHT22;24897;53.514;10.482;2023-01-15T04:12:00;6.90;99.90
23683;DHT22;24897;53.514;10.482;2023-01-15T04:14:44;6.90;99.90
23683;DHT22;24897;53.514;10.482;2023-01-15T04:17:29;7.00;99.90
23683;DHT22;24897;53.514;10.482;2023-01-15T04:20:13;6.90;99.90
23683;DHT22;24897;53.514;10.482;2023-01-15T04:22:57;7.00;99.90
23683;DHT22;24897;53.514;10.482;2023-01-15T04:25:42;7.00;99.90
23683;DHT22;24897;53.514;10.482;2023-01-15T04:28:26;7.00;99.90
23683;DHT22;24897;53.514;10.482;2023-01-15T04:31:10;7.00;99.90
23683;DHT22;24897;53.514;10.482;2023-01-15T04:33:54;4.10;99.90
23683;DHT22;24897;53.514;10.482;2023-01-15T04:36:38;6.80;99.90
23683;DHT22;24897;53.514;10.482;2023-01-15T04:39:22;6.80;99.90
23683;DHT22;24897;53.514;10.482;2023-01-15T04:42:11;6.80;99.90
23683;DHT22;24897;53.514;10.482;2023-01-15T04:45:14;6.80;99.90
23683;DHT22;24897;53.514;10.482;2023-01-15T04:47:58;6.70;99.90
23683;DHT22;24897;53.514;10.482;2023-01-15T04:50:42;6.80;99.90
23683;DHT22;24897;53.514;10.482;2023-01-15T04:53:26;6.80;99.90
23683;DHT22;24897;53.514;10.482;2023-01-15T04:56:10;6.80;99.90
23683;DHT22;24897;53.514;10.482;2023-01-15T04:58:54;6.80;99.90
23683;DHT22;24897;53.514;10.482;2023-01-15T05:01:38;6.80;99.90
23683;DHT22;24897;53.514;10.482;2023-01-15T05:04:23;6.80;99.90
23683;DHT22;24897;53.514;10.482;2023-01-15T05:07:06;6.80;99.90
23683;DHT22;24897;53.514;10.482;2023-01-15T05:09:51;6.80;99.90
23683;DHT22;24897;53.514;10.482;2023-01-15T05:12:36;6.80;99.90
23683;DHT22;24897;53.514;10.482;2023-01-15T05:15:20;6.90;99.90
23683;DHT22;24897;53.514;10.482;2023-01-15T05:18:04;6.80;99.90
23683;DHT22;24897;53.514;10.482;2023-01-15T05:20:49;6.70;99.90
23683;DHT22;24897;53.514;10.482;2023-01-15T05:23:34;6.70;99.90
23683;DHT22;24897;53.514;10.482;2023-01-15T05:26:20;6.70;99.90
23683;DHT22;24897;53.514;10.482;2023-01-15T05:29:04;6.80;99.90
23683;DHT22;24897;53.514;10.482;2023-01-15T05:31:49;7.30;99.90
23683;DHT22;24897;53.514;10.482;2023-01-15T05:34:33;6.70;99.90
23683;DHT22;24897;53.514;10.482;2023-01-15T05:37:17;6.80;99.90
23683;DHT22;24897;53.514;10.482;2023-01-15T05:40:01;6.70;99.90
23683;DHT22;24897;53.514;10.482;2023-01-15T05:42:46;6.60;99.90
23683;DHT22;24897;53.514;10.482;2023-01-15T05:45:32;6.60;99.90
23683;DHT22;24897;53.514;10.482;2023-01-15T05:48:17;6.60;99.90
23683;DHT22;24897;53.514;10.482;2023-01-15T05:51:01;6.60;99.90
23683;DHT22;24897;53.514;10.482;2023-01-15T05:53:45;6.60;99.90
23683;DHT22;24897;53.514;10.482;2023-01-15T05:56:29;6.60;99.90
23683;DHT22;24897;53.514;10.482;2023-01-15T05:59:15;6.60;99.90
23683;DHT22;24897;53.514;10.482;2023-01-15T06:02:00;6.60;99.90
23683;DHT22;24897;53.514;10.482;2023-01-15T06:04:44;6.60;99.90
23683;DHT22;24897;53.514;10.482;2023-01-15T06:07:28;6.60;99.90
23683;DHT22;24897;53.514;10.482;2023-01-15T06:10:12;6.60;99.90
23683;DHT22;24897;53.514;10.482;2023-01-15T06:12:56;6.60;99.90
23683;DHT22;24897;53.514;10.482;2023-01-15T06:15:40;6.60;99.90
23683;DHT22;24897;53.514;10.482;2023-01-15T06:18:25;6.50;99.90
23683;DHT22;24897;53.514;10.482;2023-01-15T06:21:10;6.50;99.90
23683;DHT22;24897;53.514;10.482;2023-01-15T06:23:55;6.50;99.90
23683;DHT22;24897;53.514;10.482;2023-01-15T06:26:39;6.50;99.90
23683;DHT22;24897;53.514;10.482;2023-01-15T06:29:23;6.50;99.90
23683;DHT22;24897;53.514;10.482;2023-01-15T06:32:08;6.50;99.90
23683;DHT22;24897;53.514;10.482;2023-01-15T06:34:52;6.50;99.90
23683;DHT22;24897;53.514;10.482;2023-01-15T06:37:36;6.40;99.90
23683;DHT22;24897;53.514;10.482;2023-01-15T06:40:20;6.40;99.90
23683;DHT22;24897;53.514;10.482;2023-01-15T06:43:04;6.30;99.90
23683;DHT22;24897;53.514;10.482;2023-01-15T06:46:08;6.40;99.90
23683;DHT22;24897;53.514;10.482;2023-01-15T06:49:11;6.40;99.90
23683;DHT22;24897;53.514;10.482;2023-01-15T06:51:55;6.40;99.90
23683;DHT22;24897;53.514;10.482;2023-01-15T06:54:39;6.40;99.90
23683;DHT22;24897;53.514;10.482;2023-01-15T06:57:24;6.30;99.90
23683;DHT22;24897;53.514;10.482;2023-01-15T07:00:08;6.40;99.90
23683;DHT22;24897;53.514;10.482;2023-01-15T07:02:53;6.40;99.90
23683;DHT22;24897;53.514;10.482;2023-01-15T07:05:38;6.40;99.90
23683;DHT22;24897;53.514;10.482;2023-01-15T07:08:22;6.40;99.90
23683;DHT22;24897;53.514;10.482;2023-01-15T07:11:08;6.30;99.90
23683;DHT22;24897;53.514;10.482;2023-01-15T07:13:52;6.30;99.90
23683;DHT22;24897;53.514;10.482;2023-01-15T07:16:49;6.20;99.90
23683;DHT22;24897;53.514;10.482;2023-01-15T07:19:33;6.30;99.90
23683;DHT22;24897;53.514;10.482;2023-01-15T07:22:18;6.30;99.90
23683;DHT22;24897;53.514;10.482;2023-01-15T07:25:02;6.30;99.90
23683;DHT22;24897;53.514;10.482;2023-01-15T07:27:47;6.20;99.90
23683;DHT22;24897;53.514;10.482;2023-01-15T07:30:31;6.20;99.90
23683;DHT22;24897;53.514;10.482;2023-01-15T07:33:15;6.30;99.90
23683;DHT22;24897;53.514;10.482;2023-01-15T07:36:04;6.20;99.90
23683;DHT22;24897;53.514;10.482;2023-01-15T07:38:48;6.20;99.90
23683;DHT22;24897;53.514;10.482;2023-01-15T07:41:33;6.30;99.90
23683;DHT22;24897;53.514;10.482;2023-01-15T07:44:36;6.30;99.90
23683;DHT22;24897;53.514;10.482;2023-01-15T07:47:39;6.70;99.90
23683;DHT22;24897;53.514;10.482;2023-01-15T07:50:42;6.20;99.90
23683;DHT22;24897;53.514;10.482;2023-01-15T07:53:26;6.20;99.90
23683;DHT22;24897;53.514;10.482;2023-01-15T07:56:10;6.20;99.90
23683;DHT22;24897;53.514;10.482;2023-01-15T07:58:55;6.20;99.90
23683;DHT22;24897;53.514;10.482;2023-01-15T08:01:39;6.20;99.90
23683;DHT22;24897;53.514;10.482;2023-01-15T08:04:23;6.10;99.90
23683;DHT22;24897;53.514;10.482;2023-01-15T08:07:08;6.20;99.90
23683;DHT22;24897;53.514;10.482;2023-01-15T08:09:52;6.20;99.90
23683;DHT22;24897;53.514;10.482;2023-01-15T08:12:36;6.20;99.90
23683;DHT22;24897;53.514;10.482;2023-01-15T08:15:40;6.20;99.90
23683;DHT22;24897;53.514;10.482;2023-01-15T08:18:26;7.00;99.90
23683;DHT22;24897;53.514;10.482;2023-01-15T08:21:14;6.30;99.90
23683;DHT22;24897;53.514;10.482;2023-01-15T08:23:59;6.30;99.90
23683;DHT22;24897;53.514;10.482;2023-01-15T08:26:43;6.30;99.90
23683;DHT22;24897;53.514;10.482;2023-01-15T08:29:27;6.30;99.90
23683;DHT22;24897;53.514;10.482;2023-01-15T08:32:11;6.40;99.90
23683;DHT22;24897;53.514;10.482;2023-01-15T08:34:55;6.40;99.90
23683;DHT22;24897;53.514;10.482;2023-01-15T08:37:41;6.40;99.90
23683;DHT22;24897;53.514;10.482;2023-01-15T08:40:25;6.50;99.90
23683;DHT22;24897;53.514;10.482;2023-01-15T08:43:09;6.30;99.90
23683;DHT22;24897;53.514;10.482;2023-01-15T08:45:58;6.50;99.90
23683;DHT22;24897;53.514;10.482;2023-01-15T08:48:42;6.60;99.90
23683;DHT22;24897;53.514;10.482;2023-01-15T08:51:27;6.50;99.90
23683;DHT22;24897;53.514;10.482;2023-01-15T08:54:12;6.60;99.90
23683;DHT22;24897;53.514;10.482;2023-01-15T08:56:58;6.60;99.90
23683;DHT22;24897;53.514;10.482;2023-01-15T08:59:42;6.60;99.90
23683;DHT22;24897;53.514;10.482;2023-01-15T09:02:27;6.70;99.90
23683;DHT22;24897;53.514;10.482;2023-01-15T09:05:12;6.60;99.90
23683;DHT22;24897;53.514;10.482;2023-01-15T09:07:56;6.60;99.90
23683;DHT22;24897;53.514;10.482;2023-01-15T09:10:40;7.00;99.90
23683;DHT22;24897;53.514;10.482;2023-01-15T09:13:25;6.70;99.90
23683;DHT22;24897;53.514;10.482;2023-01-15T09:16:09;6.60;99.90
23683;DHT22;24897;53.514;10.482;2023-01-15T09:18:54;6.60;99.90
23683;DHT22;24897;53.514;10.482;2023-01-15T09:21:38;6.70;99.90
23683;DHT22;24897;53.514;10.482;2023-01-15T09:24:22;6.70;99.90
23683;DHT22;24897;53.514;10.482;2023-01-15T09:27:11;6.60;99.90
23683;DHT22;24897;53.514;10.482;2023-01-15T09:29:56;6.60;99.90
23683;DHT22;24897;53.514;10.482;2023-01-15T09:32:40;6.60;99.90
23683;DHT22;24897;53.514;10.482;2023-01-15T09:35:24;6.60;99.90
23683;DHT22;24897;53.514;10.482;2023-01-15T09:38:13;6.60;99.90
23683;DHT22;24897;53.514;10.482;2023-01-15T09:41:05;6.60;99.90
23683;DHT22;24897;53.514;10.482;2023-01-15T09:50:26;6.40;99.90
23683;DHT22;24897;53.514;10.482;2023-01-15T09:53:36;6.40;99.90
23683;DHT22;24897;53.514;10.482;2023-01-15T09:56:28;6.40;99.90
23683;DHT22;24897;53.514;10.482;2023-01-15T09:59:21;6.40;99.90
23683;DHT22;24897;53.514;10.482;2023-01-15T10:05:34;6.40;99.90
23683;DHT22;24897;53.514;10.482;2023-01-15T10:08:23;6.30;99.90
23683;DHT22;24897;53.514;10.482;2023-01-15T10:14:07;6.90;99.90
23683;DHT22;24897;53.514;10.482;2023-01-15T10:16:54;6.90;99.90
23683;DHT22;24897;53.514;10.482;2023-01-15T10:19:38;7.00;99.90
23683;DHT22;24897;53.514;10.482;2023-01-15T10:22:26;7.10;99.90
23683;DHT22;24897;53.514;10.482;2023-01-15T10:25:15;7.00;99.90
23683;DHT22;24897;53.514;10.482;2023-01-15T10:28:09;7.00;99.90
23683;DHT22;24897;53.514;10.482;2023-01-15T10:31:03;7.10;99.90
23683;DHT22;24897;53.514;10.482;2023-01-15T10:34:05;7.00;99.90
23683;DHT22;24897;53.514;10.482;2023-01-15T10:37:12;7.00;99.90
23683;DHT22;24897;53.514;10.482;2023-01-15T10:40:11;7.00;99.90
23683;DHT22;24897;53.514;10.482;2023-01-15T10:46:13;7.10;99.90
23683;DHT22;24897;53.514;10.482;2023-01-15T10:49:13;7.20;99.90
23683;DHT22;24897;53.514;10.482;2023-01-15T10:52:32;7.40;99.90
23683;DHT22;24897;53.514;10.482;2023-01-15T11:01:09;7.90;99.90
23683;DHT22;24897;53.514;10.482;2023-01-15T11:03:55;7.90;99.90
23683;DHT22;24897;53.514;10.482;2023-01-15T11:06:40;7.60;99.90
23683;DHT22;24897;53.514;10.482;2023-01-15T11:09:25;7.80;99.90
23683;DHT22;24897;53.514;10.482;2023-01-15T11:12:26;7.50;99.90
23683;DHT22;24897;53.514;10.482;2023-01-15T11:15:21;7.30;99.90
23683;DHT22;24897;53.514;10.482;2023-01-15T11:18:38;7.50;99.90
23683;DHT22;24897;53.514;10.482;2023-01-15T11:21:42;7.70;99.90
23683;DHT22;24897;53.514;10.482;2023-01-15T11:24:26;7.70;99.90
23683;DHT22;24897;53.514;10.482;2023-01-15T11:27:15;7.50;99.90
23683;DHT22;24897;53.514;10.482;2023-01-15T11:30:01;7.40;99.90
23683;DHT22;24897;53.514;10.482;2023-01-15T11:32:54;7.30;99.90
23683;DHT22;24897;53.514;10.482;2023-01-15T11:35:52;7.30;99.90
23683;DHT22;24897;53.514;10.482;2023-01-15T11:38:45;7.40;99.90
23683;DHT22;24897;53.514;10.482;2023-01-15T11:41:32;7.30;99.90
23683;DHT22;24897;53.514;10.482;2023-01-15T11:44:36;7.40;99.90
23683;DHT22;24897;53.514;10.482;2023-01-15T11:47:52;7.40;99.90
23683;DHT22;24897;53.514;10.482;2023-01-15T11:51:11;7.40;99.90
23683;DHT22;24897;53.514;10.482;2023-01-15T11:54:03;7.30;99.90
23683;DHT22;24897;53.514;10.482;2023-01-15T11:56:48;7.20;99.90
23683;DHT22;24897;53.514;10.482;2023-01-15T11:59:32;7.30;99.90
23683;DHT22;24897;53.514;10.482;2023-01-15T12:02:29;7.20;99.90
23683;DHT22;24897;53.514;10.482;2023-01-15T12:05:24;7.20;99.90
23683;DHT22;24897;53.514;10.482;2023-01-15T12:08:41;7.10;99.90
23683;DHT22;24897;53.514;10.482;2023-01-15T12:14:55;6.70;99.90
23683;DHT22;24897;53.514;10.482;2023-01-15T12:30:37;4.00;99.90
23683;DHT22;24897;53.514;10.482;2023-01-15T12:33:42;4.00;99.90
23683;DHT22;24897;53.514;10.482;2023-01-15T12:36:49;4.00;99.90
23683;DHT22;24897;53.514;10.482;2023-01-15T12:40:24;4.20;99.90
23683;DHT22;24897;53.514;10.482;2023-01-15T12:42:52;4.30;99.90
23683;DHT22;24897;53.514;10.482;2023-01-15T12:45:56;4.50;99.90
23683;DHT22;24897;53.514;10.482;2023-01-15T12:48:54;4.60;99.90
23683;DHT22;24897;53.514;10.482;2023-01-15T12:51:49;5.20;99.90
23683;DHT22;24897;53.514;10.482;2023-01-15T12:54:39;6.20;99.90
23683;DHT22;24897;53.514;10.482;2023-01-15T12:57:32;5.90;99.90
23683;DHT22;24897;53.514;10.482;2023-01-15T13:00:34;5.50;99.90
23683;DHT22;24897;53.514;10.482;2023-01-15T13:03:44;5.50;99.90
23683;DHT22;24897;53.514;10.482;2023-01-15T13:06:31;5.30;99.90
23683;DHT22;24897;53.514;10.482;2023-01-15T13:09:46;5.40;99.90
23683;DHT22;24897;53.514;10.482;2023-01-15T13:12:34;5.50;99.90
23683;DHT22;24897;53.514;10.482;2023-01-15T13:15:20;5.50;99.90
23683;DHT22;24897;53.514;10.482;2023-01-15T13:21:01;6.50;99.90
23683;DHT22;24897;53.514;10.482;2023-01-15T13:24:46;6.90;99.90
23683;DHT22;24897;53.514;10.482;2023-01-15T13:27:05;7.30;99.90
23683;DHT22;24897;53.514;10.482;2023-01-15T13:32:54;6.60;99.90
23683;DHT22;24897;53.514;10.482;2023-01-15T13:35:47;6.60;99.90
23683;DHT22;24897;53.514;10.482;2023-01-15T13:38:39;6.60;99.90
23683;DHT22;24897;53.514;10.482;2023-01-15T13:41:27;6.60;99.90
23683;DHT22;24897;53.514;10.482;2023-01-15T13:44:35;7.40;99.90
23683;DHT22;24897;53.514;10.482;2023-01-15T13:47:29;6.70;99.90
23683;DHT22;24897;53.514;10.482;2023-01-15T13:50:35;6.70;99.90
23683;DHT22;24897;53.514;10.482;2023-01-15T13:53:26;6.80;99.90
23683;DHT22;24897;53.514;10.482;2023-01-15T13:56:12;6.80;99.90
23683;DHT22;24897;53.514;10.482;2023-01-15T13:59:05;6.80;99.90
23683;DHT22;24897;53.514;10.482;2023-01-15T14:01:50;6.90;99.90
23683;DHT22;24897;53.514;10.482;2023-01-15T14:04:38;6.90;99.90
23683;DHT22;24897;53.514;10.482;2023-01-15T14:07:33;6.80;99.90
23683;DHT22;24897;53.514;10.482;2023-01-15T14:22:34;6.40;99.90
23683;DHT22;24897;53.514;10.482;2023-01-15T14:34:43;6.60;99.90
23683;DHT22;24897;53.514;10.482;2023-01-15T14:37:46;6.60;99.90
23683;DHT22;24897;53.514;10.482;2023-01-15T14:40:33;6.60;99.90
23683;DHT22;24897;53.514;10.482;2023-01-15T14:43:19;6.60;99.90
23683;DHT22;24897;53.514;10.482;2023-01-15T14:46:38;7.20;99.90
23683;DHT22;24897;53.514;10.482;2023-01-15T14:49:30;6.70;99.90
23683;DHT22;24897;53.514;10.482;2023-01-15T14:52:22;6.90;99.90
23683;DHT22;24897;53.514;10.482;2023-01-15T14:55:09;6.80;99.90
23683;DHT22;24897;53.514;10.482;2023-01-15T14:58:00;6.80;99.90
23683;DHT22;24897;53.514;10.482;2023-01-15T15:00:47;6.90;99.90
23683;DHT22;24897;53.514;10.482;2023-01-15T15:03:59;6.90;99.90
23683;DHT22;24897;53.514;10.482;2023-01-15T15:06:53;7.00;99.90
23683;DHT22;24897;53.514;10.482;2023-01-15T15:09:57;7.10;99.90
23683;DHT22;24897;53.514;10.482;2023-01-15T15:15:38;7.20;99.90
23683;DHT22;24897;53.514;10.482;2023-01-15T15:18:26;7.20;99.90
23683;DHT22;24897;53.514;10.482;2023-01-15T15:21:19;7.20;99.90
23683;DHT22;24897;53.514;10.482;2023-01-15T15:24:31;7.20;99.90
23683;DHT22;24897;53.514;10.482;2023-01-15T15:27:22;7.20;99.90
23683;DHT22;24897;53.514;10.482;2023-01-15T15:30:09;7.20;99.90
23683;DHT22;24897;53.514;10.482;2023-01-15T15:32:53;7.30;99.90
23683;DHT22;24897;53.514;10.482;2023-01-15T15:35:40;7.30;99.90
23683;DHT22;24897;53.514;10.482;2023-01-15T15:38:26;7.20;99.90
23683;DHT22;24897;53.514;10.482;2023-01-15T15:41:11;7.20;99.90
23683;DHT22;24897;53.514;10.482;2023-01-15T15:43:57;7.00;99.90
23683;DHT22;24897;53.514;10.482;2023-01-15T15:47:17;6.90;99.90
23683;DHT22;24897;53.514;10.482;2023-01-15T15:50:22;7.00;99.90
23683;DHT22;24897;53.514;10.482;2023-01-15T15:53:16;7.00;99.90
23683;DHT22;24897;53.514;10.482;2023-01-15T15:56:00;6.90;99.90
23683;DHT22;24897;53.514;10.482;2023-01-15T15:58:45;6.70;99.90
23683;DHT22;24897;53.514;10.482;2023-01-15T16:01:35;6.60;99.90
23683;DHT22;24897;53.514;10.482;2023-01-15T16:04:19;6.50;99.90
23683;DHT22;24897;53.514;10.482;2023-01-15T16:07:33;6.40;99.90
23683;DHT22;24897;53.514;10.482;2023-01-15T16:10:26;6.30;99.90
23683;DHT22;24897;53.514;10.482;2023-01-15T16:13:24;6.10;99.90
23683;DHT22;24897;53.514;10.482;2023-01-15T16:16:12;6.00;99.90
23683;DHT22;24897;53.514;10.482;2023-01-15T16:18:59;6.00;99.90
23683;DHT22;24897;53.514;10.482;2023-01-15T16:21:45;5.90;99.90
23683;DHT22;24897;53.514;10.482;2023-01-15T16:24:30;5.80;99.90
23683;DHT22;24897;53.514;10.482;2023-01-15T16:27:14;5.80;99.90
23683;DHT22;24897;53.514;10.482;2023-01-15T16:30:05;5.70;99.90
23683;DHT22;24897;53.514;10.482;2023-01-15T16:32:51;5.70;99.90
23683;DHT22;24897;53.514;10.482;2023-01-15T16:35:36;5.80;99.90
23683;DHT22;24897;53.514;10.482;2023-01-15T16:38:20;5.50;99.90
23683;DHT22;24897;53.514;10.482;2023-01-15T16:41:05;5.50;99.90
23683;DHT22;24897;53.514;10.482;2023-01-15T16:44:05;5.60;99.90
23683;DHT22;24897;53.514;10.482;2023-01-15T16:46:53;5.60;99.90
23683;DHT22;24897;53.514;10.482;2023-01-15T16:49:38;5.60;99.90
23683;DHT22;24897;53.514;10.482;2023-01-15T16:55:40;5.60;99.90
23683;DHT22;24897;53.514;10.482;2023-01-15T16:58:39;6.60;99.90
23683;DHT22;24897;53.514;10.482;2023-01-15T17:01:41;5.40;99.90
23683;DHT22;24897;53.514;10.482;2023-01-15T17:04:27;5.40;99.90
23683;DHT22;24897;53.514;10.482;2023-01-15T17:07:50;5.00;99.90
23683;DHT22;24897;53.514;10.482;2023-01-15T17:10:27;5.30;99.90
23683;DHT22;24897;53.514;10.482;2023-01-15T17:13:17;5.30;99.90
23683;DHT22;24897;53.514;10.482;2023-01-15T17:18:50;5.30;99.90
23683;DHT22;24897;53.514;10.482;2023-01-15T17:21:36;5.30;99.90
23683;DHT22;24897;53.514;10.482;2023-01-15T17:24:20;5.20;99.90
23683;DHT22;24897;53.514;10.482;2023-01-15T17:27:04;5.30;99.90
23683;DHT22;24897;53.514;10.482;2023-01-15T17:29:48;5.10;99.90
23683;DHT22;24897;53.514;10.482;2023-01-15T17:32:33;5.10;99.90
23683;DHT22;24897;53.514;10.482;2023-01-15T17:35:31;5.20;99.90
23683;DHT22;24897;53.514;10.482;2023-01-15T17:38:16;5.20;99.90
23683;DHT22;24897;53.514;10.482;2023-01-15T17:41:02;5.20;99.90
23683;DHT22;24897;53.514;10.482;2023-01-15T17:43:50;5.20;99.90
23683;DHT22;24897;53.514;10.482;2023-01-15T17:46:34;5.40;99.90
23683;DHT22;24897;53.514;10.482;2023-01-15T17:49:18;5.30;99.90
23683;DHT22;24897;53.514;10.482;2023-01-15T17:52:05;5.30;99.90
23683;DHT22;24897;53.514;10.482;2023-01-15T17:54:49;5.40;99.90
23683;DHT22;24897;53.514;10.482;2023-01-15T17:57:52;5.40;99.90
23683;DHT22;24897;53.514;10.482;2023-01-15T18:00:56;5.50;99.90
23683;DHT22;24897;53.514;10.482;2023-01-15T18:03:59;5.40;99.90
23683;DHT22;24897;53.514;10.482;2023-01-15T18:07:03;5.40;99.90
23683;DHT22;24897;53.514;10.482;2023-01-15T18:09:48;5.40;99.90
23683;DHT22;24897;53.514;10.482;2023-01-15T18:12:35;5.40;99.90
23683;DHT22;24897;53.514;10.482;2023-01-15T18:15:19;5.40;99.90
23683;DHT22;24897;53.514;10.482;2023-01-15T18:18:04;5.40;99.90
23683;DHT22;24897;53.514;10.482;2023-01-15T18:20:48;5.50;99.90
23683;DHT22;24897;53.514;10.482;2023-01-15T18:23:32;5.50;99.90
23683;DHT22;24897;53.514;10.482;2023-01-15T18:26:18;5.50;99.90
23683;DHT22;24897;53.514;10.482;2023-01-15T18:29:03;5.50;99.90
23683;DHT22;24897;53.514;10.482;2023-01-15T18:31:48;5.50;99.90
23683;DHT22;24897;53.514;10.482;2023-01-15T18:34:32;5.50;99.90
23683;DHT22;24897;53.514;10.482;2023-01-15T18:37:16;5.50;99.90
23683;DHT22;24897;53.514;10.482;2023-01-15T18:40:00;5.50;99.90
23683;DHT22;24897;53.514;10.482;2023-01-15T18:42:44;5.50;99.90
23683;DHT22;24897;53.514;10.482;2023-01-15T18:45:48;5.50;99.90
23683;DHT22;24897;53.514;10.482;2023-01-15T18:48:51;5.50;99.90
23683;DHT22;24897;53.514;10.482;2023-01-15T18:51:35;5.50;99.90
23683;DHT22;24897;53.514;10.482;2023-01-15T18:54:19;5.60;99.90
23683;DHT22;24897;53.514;10.482;2023-01-15T18:57:04;5.60;99.90
23683;DHT22;24897;53.514;10.482;2023-01-15T18:59:48;5.60;99.90
23683;DHT22;24897;53.514;10.482;2023-01-15T19:02:34;5.60;99.90
23683;DHT22;24897;53.514;10.482;2023-01-15T19:05:18;5.70;99.90
23683;DHT22;24897;53.514;10.482;2023-01-15T19:08:02;5.70;99.90
23683;DHT22;24897;53.514;10.482;2023-01-15T19:10:46;5.70;99.90
23683;DHT22;24897;53.514;10.482;2023-01-15T19:13:30;5.70;99.90
23683;DHT22;24897;53.514;10.482;2023-01-15T19:16:14;5.70;99.90